Hidalgo, Texas
Current Conditions -  °F | °C
As of 5:53 AM on Thursday 23 Oct 2014 (Local Time) from KMFE Reporting Station
Clear Clear  
Wind Chill: 70°   Ceiling: Unl
Heat Index: 70°   Visibility: 10mi
Dew Point: 66°   Wind: 6mph
Humidity: 87%   Direction: 360°N
Pressure: 30.03"   Gusts: NA
Location:  26.1°N, 98.26°W
Report Text: KMFE 231053Z AUTO 36005KT 10SM CLR 21/19 A3003 RMK AO2 SLP168 T02110189
Loading
Personal Weather Stations






























Interactive Weather Map
Tropical Storm Tracking
New forecast layout! Learn more

10-Day Weather Forecast

Advertisements
Track Severe Weather on mobile